map of NVS home
NVS - Airport
Location
City:  Neveras, Bourgogne (Burgundy), France
Name:Fourchambault
ICAO:LFQG
IATA:NVS

Details
Type:Airport (Aerodrome, Airfield)
Use:Public/Civil
Latitude:4700'13"N (47.003731)
Longitude:306'39"E (3.110742)
Elevation:602 ft (183 m)
Variation:1.25E (WMM2015v2 magnetic declination)
0.16 annual change
Runways:2
Longest:5348 × 98 ft (1630 × 30 m)

Time
Time Zone:UTC+1 (DST+2)
Local Time:

Weather
METAR:LFQG 041400Z AUTO 17007KT CAVOK 04/M01 Q1027

Related Locations
Nearby:
Farthest:CHT: 12208 mi / 19648 km
Waitangi [Tuuta], CIT, NZ

Find:

   beyond  
but within

Other Information
Maps:
NOTAMs:
Links:
Sources:

  
  • flag of France
  • flag of Bourgogne (Burgundy)
  

Sectional Chart

Flight Planning
at skyvector.com

Satellite Image

Google Maps Satellite view

 

Copyright © 2004-2019 Karl L. Swartz. All rights reserved.
The Great Circle Mapper name and logo are trademarks of the Great Circle Mapper.
All other trademarks mentioned herein belong to their respective owners.
Please see credits for attibutions and further copyright information.

  Follow gcmap on Facebook Follow gcmap on Twitter GCmap on LinkedIn

hCard Microformat

Geo Microformat